Heman, Illinois
Current Conditions -  °F | °C
As of 1:54 AM on Thursday 29 Jan 2015 (Local Time) from KDEC Reporting Station
Clear Clear  
Wind Chill:   Ceiling: Unl
Heat Index:   Visibility: 10mi
Dew Point:   Wind: 17mph
Humidity: 67%   Direction: 200°SSW
Pressure: 29.75"   Gusts: 29mph
Location:  39.9621°N, 89.0863°W
Report Text: KDEC 290754Z AUTO 20015G25KT 10SM CLR 06/00 A2975 RMK AO2 PK WND 18027/0704 SLP079 T00560000 TSNO
Loading
Personal Weather Stations






























Interactive Weather Map New forecast layout! Learn more

10-Day Weather Forecast

Advertisements
Track Severe Weather on mobile